createdAt,value
2022-08-17T00:01:52.277Z,-3.55
2022-08-17T00:06:57.602Z,-3.77
2022-08-17T00:12:40.629Z,-3.80
2022-08-17T00:17:24.202Z,-4.28
2022-08-17T00:22:28.822Z,-4.18
2022-08-17T00:27:38.589Z,-4.55
2022-08-17T00:33:15.572Z,-4.40
2022-08-17T00:38:10.127Z,-4.07
2022-08-17T00:43:18.081Z,-3.73
2022-08-17T00:48:29.122Z,-3.39
2022-08-17T00:53:38.021Z,-3.04
2022-08-17T00:58:41.876Z,-3.20
2022-08-17T01:03:44.982Z,-3.02
2022-08-17T01:08:52.320Z,-2.77
2022-08-17T01:14:00.735Z,-2.72
2022-08-17T01:19:10.357Z,-2.00
2022-08-17T01:24:15.113Z,-1.32
2022-08-17T01:29:20.496Z,-1.66
2022-08-17T01:34:25.145Z,-1.68
2022-08-17T01:39:47.842Z,-2.08
2022-08-17T01:44:56.930Z,-2.13
2022-08-17T01:50:06.176Z,-2.07
2022-08-17T01:55:12.606Z,-1.73
2022-08-17T02:00:16.193Z,-1.57
2022-08-17T02:05:20.153Z,-1.72
2022-08-17T02:10:25.112Z,-1.52
2022-08-17T02:15:37.682Z,-1.35
2022-08-17T02:20:42.954Z,-1.48
2022-08-17T02:25:50.624Z,-1.37
2022-08-17T02:31:01.562Z,-1.32
2022-08-17T02:36:06.749Z,-1.40
2022-08-17T02:41:13.302Z,-1.19
2022-08-17T02:46:16.271Z,-1.77
2022-08-17T02:51:19.530Z,-1.25
2022-08-17T02:56:24.571Z,-0.59
2022-08-17T03:01:28.399Z,-0.86
2022-08-17T03:06:32.116Z,-1.25
2022-08-17T03:11:36.927Z,-0.99
2022-08-17T03:16:41.559Z,-0.69
2022-08-17T03:21:45.729Z,-0.83
2022-08-17T03:26:50.346Z,-0.62
2022-08-17T03:31:53.678Z,-0.06
2022-08-17T03:36:57.247Z,0.81
2022-08-17T03:42:07.389Z,0.44
2022-08-17T03:47:29.516Z,-0.22
2022-08-17T03:52:51.812Z,-0.30
2022-08-17T03:57:56.887Z,-0.16
2022-08-17T04:03:00.033Z,-0.45
2022-08-17T04:08:03.234Z,-0.51
2022-08-17T04:13:10.854Z,-0.40
2022-08-17T04:18:13.845Z,-0.60
2022-08-17T04:23:19.173Z,-0.70
2022-08-17T04:28:24.026Z,-1.12
2022-08-17T04:33:29.169Z,-1.22
2022-08-17T04:38:34.825Z,-1.62
2022-08-17T04:43:41.851Z,-2.14
2022-08-17T04:48:48.543Z,-2.08
2022-08-17T04:53:54.682Z,-2.06
2022-08-17T04:59:02.807Z,-2.19
2022-08-17T05:04:21.350Z,-2.83
2022-08-17T05:09:32.906Z,-3.60
2022-08-17T05:14:39.461Z,-3.89
2022-08-17T05:19:42.544Z,-4.13
2022-08-17T05:24:53.996Z,-4.23
2022-08-17T05:30:00.136Z,-4.34
2022-08-17T05:35:03.258Z,-4.73
2022-08-17T05:40:07.826Z,-5.05
2022-08-17T05:45:16.161Z,-5.12
2022-08-17T05:50:37.081Z,-5.71
2022-08-17T05:55:48.441Z,-5.97
2022-08-17T06:01:00.998Z,-5.97
2022-08-17T06:06:21.975Z,-5.21
2022-08-17T06:11:35.861Z,-4.56
2022-08-17T06:16:45.417Z,-5.02
2022-08-17T06:21:51.323Z,-5.67
2022-08-17T06:26:55.773Z,-5.95
2022-08-17T06:32:00.130Z,118.73
2022-08-17T06:37:21.503Z,117.94
2022-08-17T06:43:02.569Z,118.02
2022-08-17T06:48:05.240Z,118.05
2022-08-17T06:53:19.348Z,118.02
2022-08-17T06:58:29.759Z,117.75
2022-08-17T07:03:38.427Z,117.48
2022-08-17T07:08:55.989Z,117.16
2022-08-17T07:14:07.553Z,117.35
2022-08-17T07:19:13.460Z,116.97
2022-08-17T07:24:33.355Z,116.18
2022-08-17T07:29:41.513Z,116.43
2022-08-17T07:35:02.282Z,116.17
2022-08-17T07:40:17.553Z,115.86
2022-08-17T07:45:39.437Z,116.12
2022-08-17T07:50:49.682Z,115.80
2022-08-17T07:55:54.674Z,116.13
2022-08-17T08:01:07.449Z,115.60
2022-08-17T08:06:31.718Z,115.59
2022-08-17T08:11:40.121Z,115.05
2022-08-17T08:17:01.581Z,114.79
2022-08-17T08:22:11.537Z,114.80
2022-08-17T08:27:27.530Z,115.12
2022-08-17T08:32:48.514Z,115.32
2022-08-17T08:37:59.425Z,115.95
2022-08-17T08:43:12.927Z,114.54
2022-08-17T08:48:53.086Z,114.45
2022-08-17T08:54:10.680Z,114.25
2022-08-17T08:59:24.514Z,115.21
2022-08-17T09:05:10.286Z,114.28
2022-08-17T09:10:12.331Z,114.16
2022-08-17T09:15:21.402Z,114.86
2022-08-17T09:20:30.414Z,113.51
2022-08-17T09:25:46.408Z,113.22
2022-08-17T09:30:52.830Z,113.41
2022-08-17T09:36:00.584Z,113.35
2022-08-17T09:41:14.425Z,113.17
2022-08-17T09:46:22.290Z,113.38
2022-08-17T09:51:33.638Z,112.71
2022-08-17T09:57:05.935Z,112.46
2022-08-17T10:03:00.872Z,112.12
2022-08-17T10:08:12.663Z,111.87
2022-08-17T10:13:29.363Z,111.64
2022-08-17T10:18:44.252Z,112.35
2022-08-17T10:24:10.082Z,112.26
2022-08-17T10:29:20.083Z,110.80
2022-08-17T10:34:41.419Z,111.29
2022-08-17T10:39:52.169Z,111.30
2022-08-17T10:45:03.900Z,111.40
2022-08-17T10:50:49.967Z,110.95
2022-08-17T10:56:18.408Z,111.05
2022-08-17T11:02:01.821Z,112.25
2022-08-17T11:07:12.743Z,112.26
2022-08-17T11:12:27.183Z,111.32
2022-08-17T11:18:01.739Z,110.96
2022-08-17T11:23:33.519Z,111.07
2022-08-17T11:28:52.598Z,111.17
2022-08-17T11:34:00.319Z,110.71
2022-08-17T11:39:15.601Z,110.77
2022-08-17T11:44:38.223Z,110.68
2022-08-17T11:50:15.833Z,111.03
2022-08-17T11:56:00.941Z,110.60
2022-08-17T12:01:07.647Z,109.88
2022-08-17T12:06:34.867Z,109.73
2022-08-17T12:12:11.350Z,109.91
2022-08-17T12:17:22.459Z,109.92
2022-08-17T12:22:54.118Z,109.91
2022-08-17T12:28:06.631Z,109.84
2022-08-17T12:33:25.740Z,109.67
2022-08-17T12:38:35.426Z,108.43
2022-08-17T12:43:38.464Z,109.07
2022-08-17T12:48:59.036Z,109.45
2022-08-17T12:54:03.110Z,108.88
2022-08-17T12:59:07.537Z,108.11
2022-08-17T13:04:24.621Z,109.12
2022-08-17T13:09:35.350Z,109.16
2022-08-17T13:14:45.857Z,109.10
2022-08-17T13:19:51.667Z,108.83
2022-08-17T13:24:57.577Z,109.27
2022-08-17T13:30:03.108Z,108.99
2022-08-17T13:35:39.823Z,110.08
2022-08-17T13:40:50.150Z,108.56
2022-08-17T13:45:53.648Z,110.00
2022-08-17T13:51:22.026Z,108.78
2022-08-17T13:56:38.656Z,109.50
2022-08-17T14:01:52.554Z,108.83
2022-08-17T14:07:01.117Z,108.46
2022-08-17T14:12:09.436Z,108.69
2022-08-17T14:17:13.035Z,108.55
2022-08-17T14:22:23.897Z,108.69
2022-08-17T14:27:28.336Z,109.34
2022-08-17T14:32:33.191Z,108.34
2022-08-17T14:37:38.076Z,109.84
2022-08-17T14:42:43.622Z,112.84
2022-08-17T14:47:49.140Z,114.62
2022-08-17T14:52:55.410Z,115.41
2022-08-17T14:57:58.684Z,115.50
2022-08-17T15:03:02.515Z,115.15
2022-08-17T15:08:08.285Z,115.19
2022-08-17T15:13:17.273Z,115.28
2022-08-17T15:18:20.585Z,114.88
2022-08-17T15:23:27.729Z,115.03
2022-08-17T15:28:31.748Z,115.28
2022-08-17T15:33:35.238Z,115.34
2022-08-17T15:38:39.566Z,115.34
2022-08-17T15:43:44.712Z,115.55
2022-08-17T15:48:50.210Z,116.67
2022-08-17T15:53:57.032Z,115.90
2022-08-17T15:59:01.397Z,116.53
2022-08-17T16:04:07.248Z,117.96
2022-08-17T16:09:30.491Z,118.69
2022-08-17T16:14:35.005Z,118.51
2022-08-17T16:19:39.563Z,-5.95
2022-08-17T16:24:57.214Z,-5.24
2022-08-17T16:30:01.355Z,-4.47
2022-08-17T16:35:05.814Z,-3.99
2022-08-17T16:40:12.195Z,-2.97
2022-08-17T16:45:19.902Z,-2.30
2022-08-17T16:50:24.282Z,-1.66
2022-08-17T16:55:28.799Z,-0.82
2022-08-17T17:00:33.449Z,-0.15
2022-08-17T17:05:55.182Z,-0.28
2022-08-17T17:11:09.075Z,0.55
2022-08-17T17:16:18.578Z,1.26
2022-08-17T17:21:25.707Z,1.17
2022-08-17T17:26:49.108Z,1.58
2022-08-17T17:32:03.509Z,2.40
2022-08-17T17:37:13.443Z,2.48
2022-08-17T17:42:22.309Z,2.90
2022-08-17T17:47:25.409Z,3.09
2022-08-17T17:52:38.828Z,3.23
2022-08-17T17:57:56.271Z,3.57
2022-08-17T18:03:21.089Z,3.51
2022-08-17T18:08:36.409Z,4.22
2022-08-17T18:13:56.680Z,4.47
2022-08-17T18:19:01.745Z,4.70
2022-08-17T18:24:07.363Z,4.92
2022-08-17T18:29:36.268Z,5.33
2022-08-17T18:34:48.714Z,5.26
2022-08-17T18:39:52.190Z,5.73
2022-08-17T18:44:56.972Z,5.90
2022-08-17T18:50:21.852Z,6.16
2022-08-17T18:55:29.197Z,6.44
2022-08-17T19:00:38.977Z,6.49
2022-08-17T19:05:44.252Z,6.93
2022-08-17T19:10:49.024Z,7.07
2022-08-17T19:16:14.222Z,7.05
2022-08-17T19:21:22.240Z,7.17
2022-08-17T19:26:54.709Z,7.40
2022-08-17T19:31:56.631Z,7.68
2022-08-17T19:37:04.125Z,6.79
2022-08-17T19:42:14.484Z,7.20
2022-08-17T19:47:43.773Z,5.51
2022-08-17T19:52:53.184Z,4.18
2022-08-17T19:58:03.929Z,3.19
2022-08-17T20:03:16.680Z,2.96
2022-08-17T20:08:24.274Z,1.77
2022-08-17T20:13:33.352Z,0.62
2022-08-17T20:18:47.774Z,1.32
2022-08-17T20:23:54.229Z,-0.24
2022-08-17T20:29:36.811Z,0.21
2022-08-17T20:34:46.887Z,-0.07
2022-08-17T20:40:26.202Z,0.12
2022-08-17T20:45:55.195Z,-0.50
2022-08-17T20:51:15.618Z,-3.08
2022-08-17T20:56:50.317Z,118.11
2022-08-17T21:02:18.665Z,117.53
2022-08-17T21:07:29.689Z,116.11
2022-08-17T21:12:42.239Z,115.65
2022-08-17T21:17:50.560Z,114.51
2022-08-17T21:23:16.421Z,114.30
2022-08-17T21:28:30.158Z,113.71
2022-08-17T21:33:39.181Z,112.87
2022-08-17T21:38:57.417Z,111.33
2022-08-17T21:44:06.140Z,110.74
2022-08-17T21:49:13.800Z,110.52
2022-08-17T21:54:36.124Z,110.31
2022-08-17T21:59:40.378Z,108.63
2022-08-17T22:04:44.092Z,108.74
2022-08-17T22:09:50.369Z,108.65
2022-08-17T22:15:00.847Z,108.65
2022-08-17T22:20:14.702Z,108.69
2022-08-17T22:25:22.888Z,108.43
2022-08-17T22:30:35.856Z,108.14
2022-08-17T22:35:41.338Z,108.36
2022-08-17T22:40:48.654Z,108.01
2022-08-17T22:45:54.963Z,108.59
2022-08-17T22:51:12.584Z,108.29
2022-08-17T22:56:40.109Z,108.14
2022-08-17T23:01:45.878Z,108.52
2022-08-17T23:06:48.780Z,108.07
2022-08-17T23:11:57.703Z,107.98
2022-08-17T23:17:01.142Z,108.07
2022-08-17T23:22:06.911Z,108.30
2022-08-17T23:27:11.787Z,108.25
2022-08-17T23:32:17.417Z,108.27
2022-08-17T23:37:20.949Z,108.23
2022-08-17T23:42:25.460Z,108.40
2022-08-17T23:47:28.876Z,108.38
2022-08-17T23:52:32.489Z,108.43
2022-08-17T23:57:37.797Z,108.49
